Time;durP1;ratioP1;P1;durP2;ratioP2;P2;SDS_P1;SDS_P2;PMS_P1;PMS_P2;Temp;Humidity;BMP_temperature;BMP_pressure;BME280_temperature;BME280_humidity;BME280_pressure;Samples;Min_cycle;Max_cycle;Signal;HPM_P1;HPM_P2
2023/08/22 00:02:20;;;;;;;7.35;6.60;;;;;;;;;;4965245;28;20203;-71
2023/08/22 00:04:46;;;;;;;6.85;6.30;;;;;;;;;;4972870;28;20214;-70
2023/08/22 00:07:13;;;;;;;7.90;7.07;;;;;;;;;;4972552;28;20233;-71
2023/08/22 00:09:39;;;;;;;9.30;6.57;;;;;;;;;;4972278;28;20245;-71
2023/08/22 00:12:06;;;;;;;7.80;6.90;;;;;;;;;;4972357;28;20690;-71
2023/08/22 00:14:32;;;;;;;7.30;6.68;;;;;;;;;;4972566;28;20204;-71
2023/08/22 00:16:59;;;;;;;7.38;6.55;;;;;;;;;;4972635;28;20203;-71
2023/08/22 00:19:25;;;;;;;8.13;6.40;;;;;;;;;;4972322;28;20216;-71
2023/08/22 00:21:52;;;;;;;6.97;6.40;;;;;;;;;;4972474;28;20210;-71
2023/08/22 00:24:19;;;;;;;8.77;6.88;;;;;;;;;;4972283;28;20286;-70
2023/08/22 00:26:45;;;;;;;7.45;6.68;;;;;;;;;;4972689;28;20218;-71
2023/08/22 00:29:11;;;;;;;8.10;7.40;;;;;;;;;;4971912;28;20684;-71
2023/08/22 00:31:38;;;;;;;7.03;6.32;;;;;;;;;;4972425;28;20199;-71
2023/08/22 00:34:05;;;;;;;7.70;6.95;;;;;;;;;;4972308;28;20204;-71
2023/08/22 00:36:32;;;;;;;8.18;6.55;;;;;;;;;;4972277;28;20235;-71
2023/08/22 00:38:58;;;;;;;11.27;6.60;;;;;;;;;;4971900;28;20216;-71
2023/08/22 00:41:24;;;;;;;10.23;7.05;;;;;;;;;;4974189;28;20195;-71
2023/08/22 00:43:51;;;;;;;7.18;6.60;;;;;;;;;;4976331;28;20211;-71
2023/08/22 00:46:20;;;;;;;7.00;6.38;;;;;;;;;;4976104;28;20402;-71
2023/08/22 00:48:46;;;;;;;7.20;6.60;;;;;;;;;;4975437;28;20712;-71
2023/08/22 00:51:15;;;;;;;8.02;6.18;;;;;;;;;;4975731;28;20214;-71
2023/08/22 00:53:42;;;;;;;7.32;6.40;;;;;;;;;;4976137;28;20199;-71
2023/08/22 00:56:08;;;;;;;9.55;6.38;;;;;;;;;;4975577;28;20218;-71
2023/08/22 00:58:35;;;;;;;9.48;6.40;;;;;;;;;;4975692;28;20219;-71
2023/08/22 01:01:02;;;;;;;9.63;6.95;;;;;;;;;;4975693;28;20207;-71
2023/08/22 01:03:28;;;;;;;8.50;6.78;;;;;;;;;;4975884;28;20210;-71
2023/08/22 01:05:56;;;;;;;8.88;6.88;;;;;;;;;;4975721;28;20776;-71
2023/08/22 01:08:26;;;;;;;7.65;6.68;;;;;;;;;;4975134;28;20219;-71
2023/08/22 01:10:55;;;;;;;8.55;7.03;;;;;;;;;;4975680;28;20254;-71
2023/08/22 01:13:22;;;;;;;9.05;6.50;;;;;;;;;;4975355;28;20588;-71
2023/08/22 01:15:50;;;;;;;7.45;6.63;;;;;;;;;;4975563;28;20683;-71
2023/08/22 01:18:18;;;;;;;8.02;7.35;;;;;;;;;;4974905;28;20227;-71
2023/08/22 01:20:45;;;;;;;11.88;6.55;;;;;;;;;;4975367;28;20711;-71
2023/08/22 01:23:12;;;;;;;8.90;7.07;;;;;;;;;;4975210;28;20569;-71
2023/08/22 01:25:39;;;;;;;13.93;7.03;;;;;;;;;;4975388;28;20203;-71
2023/08/22 01:28:08;;;;;;;9.25;7.13;;;;;;;;;;4974915;28;20234;-71
2023/08/22 01:30:41;;;;;;;8.15;6.60;;;;;;;;;;4975222;28;20204;-71
2023/08/22 01:33:25;;;;;;;10.70;6.25;;;;;;;;;;4975145;28;20203;-71
2023/08/22 01:35:53;;;;;;;10.70;7.07;;;;;;;;;;4974793;28;20206;-71
2023/08/22 01:38:22;;;;;;;6.75;6.25;;;;;;;;;;4974912;28;20219;-71
2023/08/22 01:40:48;;;;;;;7.60;6.90;;;;;;;;;;4975353;28;20211;-71
2023/08/22 01:43:15;;;;;;;7.57;6.95;;;;;;;;;;4975050;28;20203;-71
2023/08/22 01:45:41;;;;;;;6.47;6.07;;;;;;;;;;4975202;28;20206;-71
2023/08/22 01:48:07;;;;;;;7.60;6.90;;;;;;;;;;4974598;28;20227;-71
2023/08/22 01:50:33;;;;;;;8.38;7.18;;;;;;;;;;4974966;28;20212;-71
2023/08/22 01:53:00;;;;;;;8.73;6.95;;;;;;;;;;4973887;28;20208;-71
2023/08/22 01:55:28;;;;;;;7.28;6.68;;;;;;;;;;4974790;28;20199;-71
2023/08/22 01:57:54;;;;;;;8.15;7.32;;;;;;;;;;4974272;28;20318;-72
2023/08/22 02:00:21;;;;;;;8.40;7.22;;;;;;;;;;4974574;28;20210;-71
2023/08/22 02:02:48;;;;;;;8.15;6.97;;;;;;;;;;4974736;28;20671;-71
2023/08/22 02:05:14;;;;;;;8.75;7.28;;;;;;;;;;4974435;28;20548;-71
2023/08/22 02:07:41;;;;;;;8.32;7.53;;;;;;;;;;4974445;28;20204;-72
2023/08/22 02:10:07;;;;;;;7.97;7.38;;;;;;;;;;4974242;28;20245;-71
2023/08/22 02:12:35;;;;;;;9.23;7.18;;;;;;;;;;4974440;28;20206;-71
2023/08/22 02:15:02;;;;;;;7.72;7.03;;;;;;;;;;4974257;28;20238;-71
2023/08/22 02:17:28;;;;;;;8.35;6.35;;;;;;;;;;4974329;28;20656;-71
2023/08/22 02:19:54;;;;;;;7.43;6.85;;;;;;;;;;4974397;28;20196;-72
2023/08/22 02:22:21;;;;;;;7.82;7.22;;;;;;;;;;4974265;28;20211;-72
2023/08/22 02:24:47;;;;;;;7.88;7.30;;;;;;;;;;4974328;28;20210;-72
2023/08/22 02:27:13;;;;;;;7.93;7.15;;;;;;;;;;4974081;28;20206;-71
2023/08/22 02:29:41;;;;;;;8.80;7.38;;;;;;;;;;4973732;28;20256;-71
2023/08/22 02:32:07;;;;;;;7.80;7.07;;;;;;;;;;4974082;28;20625;-71
2023/08/22 02:34:34;;;;;;;10.13;7.70;;;;;;;;;;4974248;28;20207;-71
2023/08/22 02:37:00;;;;;;;7.47;6.85;;;;;;;;;;4974347;28;20227;-71
2023/08/22 02:39:26;;;;;;;9.13;7.05;;;;;;;;;;4973584;28;20302;-71
2023/08/22 02:41:53;;;;;;;8.32;7.50;;;;;;;;;;4973974;28;20271;-71
2023/08/22 02:44:19;;;;;;;8.30;7.43;;;;;;;;;;4973888;28;20416;-71
2023/08/22 02:46:47;;;;;;;8.55;7.10;;;;;;;;;;4973786;28;20211;-71
2023/08/22 02:49:13;;;;;;;10.43;6.97;;;;;;;;;;4973585;28;20223;-71
2023/08/22 02:51:39;;;;;;;9.07;7.03;;;;;;;;;;4993570;23;20253;-74
2023/08/22 02:54:05;;;;;;;11.07;7.47;;;;;;;;;;4993135;28;20213;-75
2023/08/22 02:56:32;;;;;;;8.50;7.45;;;;;;;;;;4992808;28;20199;-75
2023/08/22 02:58:58;;;;;;;8.18;7.38;;;;;;;;;;4992401;28;20226;-74
2023/08/22 03:01:25;;;;;;;8.98;7.43;;;;;;;;;;4983026;28;20209;-75
2023/08/22 03:03:54;;;;;;;9.70;7.45;;;;;;;;;;4981301;28;20263;-75
2023/08/22 03:06:22;;;;;;;8.55;7.47;;;;;;;;;;4982771;28;20212;-76
2023/08/22 03:08:48;;;;;;;9.10;7.85;;;;;;;;;;4984295;28;20222;-75
2023/08/22 03:11:14;;;;;;;9.95;7.22;;;;;;;;;;4984266;28;20206;-75
2023/08/22 03:13:41;;;;;;;9.52;7.55;;;;;;;;;;4981089;28;20586;-75
2023/08/22 03:16:07;;;;;;;10.60;7.30;;;;;;;;;;4981358;28;20207;-76
2023/08/22 03:18:34;;;;;;;7.75;7.05;;;;;;;;;;4983574;28;20237;-75
2023/08/22 03:21:02;;;;;;;9.07;7.25;;;;;;;;;;4984797;28;20221;-74
2023/08/22 03:23:28;;;;;;;7.90;7.10;;;;;;;;;;4982368;28;20290;-75
2023/08/22 03:25:58;;;;;;;7.63;6.90;;;;;;;;;;4981054;28;20206;-75
2023/08/22 03:28:25;;;;;;;7.60;6.90;;;;;;;;;;4982304;28;20309;-76
2023/08/22 03:30:54;;;;;;;7.75;6.88;;;;;;;;;;4984165;28;20649;-75
2023/08/22 03:33:21;;;;;;;7.25;6.60;;;;;;;;;;4983698;28;20205;-76
2023/08/22 03:35:47;;;;;;;7.35;6.78;;;;;;;;;;4981023;28;20203;-74
2023/08/22 03:38:14;;;;;;;7.53;6.80;;;;;;;;;;4980491;28;20223;-75
2023/08/22 03:40:41;;;;;;;8.13;7.20;;;;;;;;;;4984233;28;20191;-76
2023/08/22 03:43:07;;;;;;;7.22;6.53;;;;;;;;;;4984065;28;20214;-75
2023/08/22 03:45:33;;;;;;;8.63;7.13;;;;;;;;;;4981694;28;20213;-75
2023/08/22 03:48:03;;;;;;;10.82;6.97;;;;;;;;;;4980512;28;20223;-75
2023/08/22 03:50:30;;;;;;;7.78;7.18;;;;;;;;;;4982226;28;20219;-75
2023/08/22 03:52:56;;;;;;;8.88;7.43;;;;;;;;;;4983867;28;20213;-74
2023/08/22 03:55:23;;;;;;;8.05;7.35;;;;;;;;;;4983022;28;20199;-76
2023/08/22 03:57:50;;;;;;;8.90;8.07;;;;;;;;;;4980704;28;20227;-75
2023/08/22 04:00:16;;;;;;;8.65;7.53;;;;;;;;;;4980742;28;20199;-74
2023/08/22 04:02:42;;;;;;;9.50;7.60;;;;;;;;;;4984163;28;20203;-74
2023/08/22 04:05:09;;;;;;;8.45;7.47;;;;;;;;;;4983833;28;20206;-75
2023/08/22 04:07:35;;;;;;;10.90;8.05;;;;;;;;;;4981194;28;20582;-74
2023/08/22 04:10:01;;;;;;;9.32;8.40;;;;;;;;;;4980101;28;20219;-75
2023/08/22 04:12:29;;;;;;;9.95;7.82;;;;;;;;;;4981905;28;20222;-75
2023/08/22 04:14:55;;;;;;;9.38;8.32;;;;;;;;;;4983766;28;20583;-75
2023/08/22 04:17:22;;;;;;;8.25;7.55;;;;;;;;;;4987479;28;20198;-65
2023/08/22 04:19:48;;;;;;;8.77;7.97;;;;;;;;;;4985344;28;20219;-66
2023/08/22 04:22:14;;;;;;;9.07;7.40;;;;;;;;;;4985648;28;20701;-66
2023/08/22 04:24:40;;;;;;;9.00;8.13;;;;;;;;;;4988249;28;20225;-66
2023/08/22 04:27:07;;;;;;;8.88;7.85;;;;;;;;;;4988999;28;20202;-67
2023/08/22 04:29:34;;;;;;;8.27;7.28;;;;;;;;;;4986399;28;20707;-66
2023/08/22 04:32:03;;;;;;;9.52;7.35;;;;;;;;;;4985443;28;20207;-66
2023/08/22 04:34:29;;;;;;;11.25;8.05;;;;;;;;;;4986443;28;20236;-67
2023/08/22 04:36:56;;;;;;;9.68;7.78;;;;;;;;;;4988678;28;20206;-66
2023/08/22 04:39:22;;;;;;;8.27;7.47;;;;;;;;;;4987799;28;20230;-66
2023/08/22 04:41:50;;;;;;;12.93;8.18;;;;;;;;;;4980805;28;20206;-66
2023/08/22 04:44:16;;;;;;;9.13;8.32;;;;;;;;;;4988210;28;20678;-66
2023/08/22 04:46:44;;;;;;;9.98;7.82;;;;;;;;;;4985431;28;20575;-67
2023/08/22 04:49:10;;;;;;;9.65;8.60;;;;;;;;;;4984548;28;20311;-67
2023/08/22 04:51:36;;;;;;;10.20;7.97;;;;;;;;;;4987008;28;20215;-66
2023/08/22 04:54:03;;;;;;;8.70;7.70;;;;;;;;;;4988339;28;20205;-67
2023/08/22 04:56:29;;;;;;;9.27;8.38;;;;;;;;;;4987362;28;20203;-66
2023/08/22 04:58:56;;;;;;;10.80;8.35;;;;;;;;;;4984554;28;20253;-67
2023/08/22 05:01:22;;;;;;;12.80;8.48;;;;;;;;;;4984453;28;20195;-66
2023/08/22 05:03:51;;;;;;;9.88;8.88;;;;;;;;;;4980137;28;20211;-65
2023/08/22 05:06:17;;;;;;;9.68;7.97;;;;;;;;;;4988751;28;20204;-65
2023/08/22 05:08:43;;;;;;;9.73;8.60;;;;;;;;;;4986871;28;20257;-66
2023/08/22 05:11:10;;;;;;;9.85;8.85;;;;;;;;;;4987791;28;20218;-66
2023/08/22 05:13:36;;;;;;;11.93;8.85;;;;;;;;;;4985508;28;20203;-66
2023/08/22 05:16:03;;;;;;;9.40;8.65;;;;;;;;;;4984125;28;20230;-66
2023/08/22 05:18:29;;;;;;;10.27;8.40;;;;;;;;;;4984161;28;20231;-66
2023/08/22 05:20:57;;;;;;;10.25;8.55;;;;;;;;;;4987345;28;20206;-66
2023/08/22 05:23:23;;;;;;;9.25;8.40;;;;;;;;;;4987445;28;20233;-65
2023/08/22 05:25:49;;;;;;;9.48;8.57;;;;;;;;;;4987450;28;20206;-66
2023/08/22 05:28:15;;;;;;;9.75;7.65;;;;;;;;;;4986619;28;20219;-66
2023/08/22 05:30:42;;;;;;;9.25;8.23;;;;;;;;;;4984611;28;20218;-67
2023/08/22 05:33:09;;;;;;;9.75;8.38;;;;;;;;;;4983783;28;20211;-66
2023/08/22 05:35:35;;;;;;;9.10;8.05;;;;;;;;;;4984787;28;20764;-66
2023/08/22 05:38:03;;;;;;;10.27;8.27;;;;;;;;;;4986868;28;20223;-66
2023/08/22 05:40:29;;;;;;;11.75;8.13;;;;;;;;;;4986290;28;20301;-65
2023/08/22 05:42:55;;;;;;;10.27;9.23;;;;;;;;;;4983318;28;20203;-66
2023/08/22 05:45:22;;;;;;;9.20;8.30;;;;;;;;;;4983366;28;20680;-66
2023/08/22 05:47:48;;;;;;;9.60;8.70;;;;;;;;;;4985777;28;20223;-66
2023/08/22 05:50:14;;;;;;;10.32;9.30;;;;;;;;;;4986355;28;20218;-65
2023/08/22 05:52:41;;;;;;;10.88;9.70;;;;;;;;;;4984466;28;20202;-67
2023/08/22 05:55:09;;;;;;;11.60;10.00;;;;;;;;;;4983203;28;20206;-66
2023/08/22 05:57:35;;;;;;;17.20;9.50;;;;;;;;;;4984569;28;20238;-65
2023/08/22 06:00:03;;;;;;;16.95;9.30;;;;;;;;;;4987269;28;20667;-66
2023/08/22 06:02:29;;;;;;;14.50;9.40;;;;;;;;;;4987627;28;20206;-65
2023/08/22 06:04:55;;;;;;;16.90;9.98;;;;;;;;;;4982277;28;20587;-66
2023/08/22 06:07:21;;;;;;;12.48;10.32;;;;;;;;;;4976916;28;20207;-67
2023/08/22 06:09:48;;;;;;;14.55;9.77;;;;;;;;;;4981612;28;20230;-66
2023/08/22 06:12:35;;;;;;;16.67;10.45;;;;;;;;;;4976877;28;20207;-65
2023/08/22 06:15:03;;;;;;;12.55;10.88;;;;;;;;;;4976401;28;20207;-66
2023/08/22 06:17:29;;;;;;;13.95;9.98;;;;;;;;;;4985746;28;20219;-65
2023/08/22 06:19:55;;;;;;;19.73;10.70;;;;;;;;;;4979751;28;20221;-66
2023/08/22 06:22:21;;;;;;;15.57;10.30;;;;;;;;;;4979883;28;20211;-66
2023/08/22 06:24:48;;;;;;;14.63;10.52;;;;;;;;;;4977347;28;20218;-65
2023/08/22 06:27:14;;;;;;;15.48;10.57;;;;;;;;;;4975300;28;20211;-66
2023/08/22 06:29:40;;;;;;;17.00;10.57;;;;;;;;;;4970098;28;20226;-67
2023/08/22 06:32:08;;;;;;;16.30;9.52;;;;;;;;;;4972615;28;20203;-67
2023/08/22 06:34:34;;;;;;;17.15;10.10;;;;;;;;;;4975059;28;20203;-67
2023/08/22 06:37:00;;;;;;;14.55;10.15;;;;;;;;;;4972385;28;20741;-68
2023/08/22 06:39:27;;;;;;;15.43;9.93;;;;;;;;;;4968641;28;20230;-68
2023/08/22 06:41:53;;;;;;;14.32;9.45;;;;;;;;;;4977485;28;20202;-67
2023/08/22 06:44:19;;;;;;;15.40;10.32;;;;;;;;;;4973456;28;20210;-68
2023/08/22 06:46:46;;;;;;;13.60;9.85;;;;;;;;;;4970282;28;20685;-66
2023/08/22 06:49:13;;;;;;;13.60;9.88;;;;;;;;;;4982444;28;20234;-66
2023/08/22 06:51:40;;;;;;;13.52;10.43;;;;;;;;;;4978531;28;20226;-65
2023/08/22 06:54:06;;;;;;;14.63;9.57;;;;;;;;;;4977192;28;20317;-64
2023/08/22 06:56:32;;;;;;;11.73;8.55;;;;;;;;;;4977543;28;20218;-66
2023/08/22 06:58:59;;;;;;;11.23;8.85;;;;;;;;;;4971791;28;20222;-66
2023/08/22 07:01:25;;;;;;;13.38;9.20;;;;;;;;;;4975295;28;20219;-64
2023/08/22 07:03:51;;;;;;;11.02;9.55;;;;;;;;;;4980479;28;20213;-66
2023/08/22 07:06:19;;;;;;;11.38;8.80;;;;;;;;;;4971976;28;20218;-65
2023/08/22 07:08:45;;;;;;;12.60;8.77;;;;;;;;;;4975610;28;20952;-66
2023/08/22 07:11:12;;;;;;;12.38;8.40;;;;;;;;;;4976250;28;20219;-65
2023/08/22 07:13:38;;;;;;;12.30;9.38;;;;;;;;;;4973986;28;20211;-65
2023/08/22 07:16:04;;;;;;;12.25;9.40;;;;;;;;;;4980095;28;20218;-65
2023/08/22 07:18:31;;;;;;;11.38;9.75;;;;;;;;;;4973642;28;20231;-65
2023/08/22 07:21:02;;;;;;;13.57;8.93;;;;;;;;;;4973027;28;20226;-65
2023/08/22 07:23:30;;;;;;;12.30;9.00;;;;;;;;;;4974701;28;20202;-64
2023/08/22 07:25:56;;;;;;;9.60;8.35;;;;;;;;;;4976234;28;20290;-66
2023/08/22 07:28:22;;;;;;;12.77;8.52;;;;;;;;;;4974258;28;21256;-67
2023/08/22 07:30:49;;;;;;;9.27;8.43;;;;;;;;;;4976246;28;20223;-66
2023/08/22 07:33:15;;;;;;;11.60;8.85;;;;;;;;;;4985673;28;20721;-65
2023/08/22 07:35:42;;;;;;;13.20;7.97;;;;;;;;;;4971277;28;20215;-65
2023/08/22 07:38:08;;;;;;;12.68;8.88;;;;;;;;;;4971713;28;20750;-65
2023/08/22 07:40:39;;;;;;;9.15;8.10;;;;;;;;;;4975818;28;20218;-66
2023/08/22 07:43:06;;;;;;;10.20;8.18;;;;;;;;;;4975477;28;20686;-65
2023/08/22 07:45:32;;;;;;;13.32;8.07;;;;;;;;;;4967839;28;20215;-66
2023/08/22 07:47:58;;;;;;;11.57;8.18;;;;;;;;;;4977494;28;20817;-66
2023/08/22 07:50:24;;;;;;;10.65;8.13;;;;;;;;;;4970893;28;20488;-66
2023/08/22 07:52:51;;;;;;;9.05;7.82;;;;;;;;;;4974417;28;20219;-65
2023/08/22 07:55:17;;;;;;;11.55;7.97;;;;;;;;;;4975239;28;20214;-65
2023/08/22 07:57:45;;;;;;;10.32;8.27;;;;;;;;;;4975326;28;20214;-65
2023/08/22 08:00:13;;;;;;;12.00;7.97;;;;;;;;;;4973961;28;20211;-65
2023/08/22 08:02:39;;;;;;;13.20;7.90;;;;;;;;;;4973979;28;20211;-65
2023/08/22 08:05:06;;;;;;;12.18;7.78;;;;;;;;;;4975930;28;20305;-65
2023/08/22 08:07:33;;;;;;;9.32;7.80;;;;;;;;;;4973760;28;20207;-65
2023/08/22 08:09:59;;;;;;;10.70;7.45;;;;;;;;;;4979883;28;21046;-65
2023/08/22 08:12:25;;;;;;;7.65;6.93;;;;;;;;;;4971244;28;20274;-65
2023/08/22 08:14:53;;;;;;;9.63;8.20;;;;;;;;;;4980956;28;20214;-67
2023/08/22 08:17:19;;;;;;;11.23;7.55;;;;;;;;;;4973445;28;20218;-66
2023/08/22 08:19:46;;;;;;;9.25;7.35;;;;;;;;;;4973041;28;20706;-66
2023/08/22 08:22:12;;;;;;;10.60;7.57;;;;;;;;;;4972257;28;20210;-66
2023/08/22 08:24:38;;;;;;;7.32;6.60;;;;;;;;;;4974799;28;20622;-65
2023/08/22 08:27:05;;;;;;;7.00;6.40;;;;;;;;;;4979578;28;20214;-65
2023/08/22 08:29:31;;;;;;;8.88;6.47;;;;;;;;;;4977147;28;20223;-65
2023/08/22 08:31:59;;;;;;;7.43;6.03;;;;;;;;;;4974223;28;20227;-65
2023/08/22 08:34:25;;;;;;;10.32;6.75;;;;;;;;;;4967768;28;20529;-65
2023/08/22 08:36:52;;;;;;;7.75;6.15;;;;;;;;;;4972615;28;20746;-66
2023/08/22 08:39:18;;;;;;;9.48;6.10;;;;;;;;;;4977745;28;20233;-65
2023/08/22 08:41:49;;;;;;;6.32;5.47;;;;;;;;;;4974775;28;20202;-66
2023/08/22 08:44:16;;;;;;;9.50;5.90;;;;;;;;;;4973977;28;20207;-66
2023/08/22 08:46:42;;;;;;;9.80;6.35;;;;;;;;;;4975974;28;20230;-68
2023/08/22 08:49:10;;;;;;;9.52;6.40;;;;;;;;;;4970629;28;20234;-66
2023/08/22 08:51:38;;;;;;;10.60;6.18;;;;;;;;;;4972464;28;20214;-66
2023/08/22 08:54:05;;;;;;;10.18;5.85;;;;;;;;;;4970810;28;20214;-66
2023/08/22 08:56:31;;;;;;;9.90;5.75;;;;;;;;;;4972861;28;20235;-65
2023/08/22 08:58:57;;;;;;;6.82;5.60;;;;;;;;;;4972778;28;20231;-66
2023/08/22 09:01:25;;;;;;;7.95;5.25;;;;;;;;;;4977834;28;20246;-66
2023/08/22 09:03:51;;;;;;;10.88;5.63;;;;;;;;;;4970239;28;20211;-66
2023/08/22 09:06:20;;;;;;;6.18;5.32;;;;;;;;;;4977868;28;20206;-66
2023/08/22 09:09:01;;;;;;;9.93;5.45;;;;;;;;;;4978466;28;20227;-67
2023/08/22 09:11:27;;;;;;;8.52;5.75;;;;;;;;;;4976738;28;20244;-67
2023/08/22 09:13:54;;;;;;;5.50;5.00;;;;;;;;;;4974552;28;20215;-66
2023/08/22 09:16:23;;;;;;;8.27;5.38;;;;;;;;;;4974903;28;20225;-65
2023/08/22 09:18:49;;;;;;;8.73;5.35;;;;;;;;;;4975382;28;20740;-65
2023/08/22 09:21:16;;;;;;;5.85;5.20;;;;;;;;;;4981180;28;20195;-67
2023/08/22 09:23:49;;;;;;;8.55;5.07;;;;;;;;;;4968928;28;20230;-66
2023/08/22 09:26:20;;;;;;;4.60;4.20;;;;;;;;;;4970547;28;20633;-66
2023/08/22 09:28:46;;;;;;;5.70;4.45;;;;;;;;;;4973740;28;20623;-68
2023/08/22 09:31:21;;;;;;;5.30;4.80;;;;;;;;;;4981335;28;20219;-67
2023/08/22 09:33:47;;;;;;;5.70;4.97;;;;;;;;;;4972051;28;20215;-67
2023/08/22 09:36:17;;;;;;;6.20;4.88;;;;;;;;;;4976729;28;20213;-69
2023/08/22 09:38:52;;;;;;;5.60;5.20;;;;;;;;;;4970137;28;20219;-69
2023/08/22 09:41:21;;;;;;;8.63;4.90;;;;;;;;;;4974688;28;20202;-67
2023/08/22 09:43:47;;;;;;;11.73;5.53;;;;;;;;;;4978354;28;20214;-66
2023/08/22 09:46:14;;;;;;;8.02;5.10;;;;;;;;;;4974241;28;20238;-68
2023/08/22 09:48:41;;;;;;;7.57;4.82;;;;;;;;;;4970555;28;20238;-66
2023/08/22 09:51:09;;;;;;;6.70;5.07;;;;;;;;;;4975273;28;20226;-67
2023/08/22 09:53:37;;;;;;;6.78;5.00;;;;;;;;;;4980295;28;20261;-66
2023/08/22 09:56:05;;;;;;;6.28;4.65;;;;;;;;;;4976880;28;20211;-66
2023/08/22 09:58:32;;;;;;;7.95;5.00;;;;;;;;;;4978551;28;20651;-66
2023/08/22 10:01:00;;;;;;;6.45;4.65;;;;;;;;;;4973809;28;20758;-66
2023/08/22 10:03:26;;;;;;;6.97;5.03;;;;;;;;;;4972250;28;20584;-66
2023/08/22 10:05:53;;;;;;;5.45;4.82;;;;;;;;;;4975809;28;20246;-67
2023/08/22 10:08:19;;;;;;;9.68;4.72;;;;;;;;;;4973995;28;20229;-68
2023/08/22 10:10:47;;;;;;;7.00;4.90;;;;;;;;;;4970811;28;20582;-68
2023/08/22 10:13:15;;;;;;;5.47;5.07;;;;;;;;;;4975792;28;20377;-66
2023/08/22 10:15:42;;;;;;;8.90;5.45;;;;;;;;;;4973439;28;20727;-68
2023/08/22 10:18:09;;;;;;;6.53;5.15;;;;;;;;;;4976798;28;20311;-67
2023/08/22 10:20:35;;;;;;;5.93;5.10;;;;;;;;;;4985497;28;20239;-66
2023/08/22 10:23:02;;;;;;;5.53;5.03;;;;;;;;;;4980184;28;20234;-68
2023/08/22 10:25:43;;;;;;;5.35;4.88;;;;;;;;;;4977705;28;20226;-67
2023/08/22 10:28:09;;;;;;;8.02;5.60;;;;;;;;;;4974309;28;20351;-66
2023/08/22 10:30:57;;;;;;;5.43;4.68;;;;;;;;;;4970556;28;20214;-66
2023/08/22 10:33:26;;;;;;;5.63;4.38;;;;;;;;;;4977816;28;20250;-66
2023/08/22 10:36:03;;;;;;;7.72;4.20;;;;;;;;;;4971827;28;20230;-66
2023/08/22 10:38:29;;;;;;;5.30;4.80;;;;;;;;;;4979148;28;20321;-66
2023/08/22 10:40:55;;;;;;;5.07;4.68;;;;;;;;;;4970922;28;20257;-65
2023/08/22 10:43:36;;;;;;;7.85;4.93;;;;;;;;;;4976378;28;20199;-66
2023/08/22 10:46:03;;;;;;;9.15;4.70;;;;;;;;;;4982996;28;20206;-66
2023/08/22 10:48:30;;;;;;;5.10;4.65;;;;;;;;;;4978763;28;20327;-66
2023/08/22 10:51:04;;;;;;;5.00;4.30;;;;;;;;;;4976065;28;20731;-66
2023/08/22 10:53:31;;;;;;;7.13;5.13;;;;;;;;;;4983751;28;20264;-66
2023/08/22 10:56:16;;;;;;;4.70;4.30;;;;;;;;;;4978839;28;20217;-67
2023/08/22 10:58:42;;;;;;;7.38;4.10;;;;;;;;;;4977229;28;20587;-68
2023/08/22 11:01:12;;;;;;;5.78;4.75;;;;;;;;;;4974350;28;20551;-68
2023/08/22 11:03:39;;;;;;;5.30;4.40;;;;;;;;;;4979341;28;20210;-68
2023/08/22 11:06:12;;;;;;;7.70;4.50;;;;;;;;;;4972542;28;20389;-67
2023/08/22 11:08:38;;;;;;;5.05;4.18;;;;;;;;;;4976896;28;20726;-68
2023/08/22 11:11:05;;;;;;;5.13;4.65;;;;;;;;;;4976707;28;20269;-67
2023/08/22 11:13:38;;;;;;;4.93;3.80;;;;;;;;;;4980139;28;20713;-67
2023/08/22 11:16:07;;;;;;;4.05;3.78;;;;;;;;;;4981921;28;20238;-67
2023/08/22 11:18:35;;;;;;;4.97;3.72;;;;;;;;;;4973165;28;20226;-68
2023/08/22 11:21:02;;;;;;;4.13;3.50;;;;;;;;;;4976160;28;20210;-69
2023/08/22 11:23:31;;;;;;;6.22;3.90;;;;;;;;;;4972893;28;20563;-68
2023/08/22 11:25:57;;;;;;;5.05;3.90;;;;;;;;;;4971242;28;20295;-68
2023/08/22 11:28:29;;;;;;;4.70;3.80;;;;;;;;;;4973768;28;20223;-67
2023/08/22 11:30:55;;;;;;;5.32;3.20;;;;;;;;;;4968614;28;20239;-68
2023/08/22 11:33:21;;;;;;;3.88;3.10;;;;;;;;;;4976606;28;20225;-67
2023/08/22 11:35:49;;;;;;;3.72;3.30;;;;;;;;;;4977328;28;20214;-66
2023/08/22 11:38:15;;;;;;;9.70;3.80;;;;;;;;;;4979659;28;20231;-67
2023/08/22 11:40:42;;;;;;;8.45;3.60;;;;;;;;;;4978291;28;20218;-66
2023/08/22 11:43:09;;;;;;;4.20;3.38;;;;;;;;;;4979881;28;20292;-67
2023/08/22 11:45:44;;;;;;;3.33;3.13;;;;;;;;;;4977164;28;20531;-67
2023/08/22 11:48:11;;;;;;;8.63;3.03;;;;;;;;;;4977042;28;20237;-67
2023/08/22 11:50:37;;;;;;;4.55;3.10;;;;;;;;;;4977012;28;20210;-68
2023/08/22 11:53:09;;;;;;;6.38;3.40;;;;;;;;;;4979713;28;20593;-68
2023/08/22 11:55:38;;;;;;;5.07;3.13;;;;;;;;;;4979580;28;20574;-67
2023/08/22 11:58:05;;;;;;;3.53;3.22;;;;;;;;;;4975020;28;20239;-69
2023/08/22 12:00:32;;;;;;;4.03;3.15;;;;;;;;;;4978325;28;20285;-67
2023/08/22 12:02:59;;;;;;;4.70;3.50;;;;;;;;;;4972480;28;20211;-67
2023/08/22 12:05:29;;;;;;;3.42;3.20;;;;;;;;;;4971868;28;20225;-67
2023/08/22 12:07:56;;;;;;;3.47;3.20;;;;;;;;;;4974588;28;20565;-67
2023/08/22 12:10:23;;;;;;;8.57;3.28;;;;;;;;;;4976557;28;20676;-69
2023/08/22 12:12:49;;;;;;;3.65;3.28;;;;;;;;;;4978609;28;20226;-68
2023/08/22 12:15:16;;;;;;;5.00;3.03;;;;;;;;;;4976135;28;20214;-68
2023/08/22 12:17:42;;;;;;;3.83;3.10;;;;;;;;;;4977064;28;20209;-69
2023/08/22 12:20:09;;;;;;;4.47;3.38;;;;;;;;;;4970922;28;20211;-68
2023/08/22 12:22:35;;;;;;;3.42;3.22;;;;;;;;;;4972803;28;20213;-67
2023/08/22 12:25:02;;;;;;;5.25;3.05;;;;;;;;;;4975315;28;20203;-68
2023/08/22 12:27:29;;;;;;;6.90;3.15;;;;;;;;;;4974772;28;20217;-67
2023/08/22 12:29:55;;;;;;;3.45;3.15;;;;;;;;;;4968071;28;20218;-67
2023/08/22 12:32:22;;;;;;;4.07;3.40;;;;;;;;;;4976252;28;20793;-67
2023/08/22 12:34:49;;;;;;;4.00;2.83;;;;;;;;;;4973338;28;20234;-68
2023/08/22 12:37:15;;;;;;;3.85;3.10;;;;;;;;;;4973716;28;20215;-68
2023/08/22 12:39:41;;;;;;;6.97;3.53;;;;;;;;;;4983579;28;20227;-67
2023/08/22 12:42:08;;;;;;;4.00;3.20;;;;;;;;;;4974666;28;20300;-67
2023/08/22 12:44:35;;;;;;;5.18;3.28;;;;;;;;;;4973702;28;20289;-67
2023/08/22 12:47:02;;;;;;;3.65;3.22;;;;;;;;;;4984169;28;20215;-68
2023/08/22 12:49:28;;;;;;;6.53;3.08;;;;;;;;;;4972626;28;20226;-67
2023/08/22 12:51:54;;;;;;;6.22;3.28;;;;;;;;;;4979955;28;21096;-68
2023/08/22 12:54:21;;;;;;;4.60;3.20;;;;;;;;;;4980888;28;20237;-68
2023/08/22 12:56:47;;;;;;;6.22;3.38;;;;;;;;;;4981984;28;20215;-68
2023/08/22 12:59:13;;;;;;;4.93;3.28;;;;;;;;;;4983902;28;20237;-68
2023/08/22 13:01:41;;;;;;;5.03;3.00;;;;;;;;;;4973611;28;20710;-68
2023/08/22 13:04:11;;;;;;;3.42;3.13;;;;;;;;;;4980871;28;20222;-66
2023/08/22 13:06:37;;;;;;;14.85;3.20;;;;;;;;;;4977868;28;20803;-66
2023/08/22 13:09:03;;;;;;;9.68;3.45;;;;;;;;;;4977848;28;20239;-66
2023/08/22 13:11:30;;;;;;;5.22;3.45;;;;;;;;;;4980765;28;20210;-66
2023/08/22 13:13:56;;;;;;;3.78;3.15;;;;;;;;;;4980978;28;20245;-66
2023/08/22 13:16:22;;;;;;;3.63;2.55;;;;;;;;;;4979180;28;20217;-66
2023/08/22 13:18:50;;;;;;;3.10;2.90;;;;;;;;;;4977445;28;20223;-67
2023/08/22 13:21:16;;;;;;;3.78;3.40;;;;;;;;;;4978559;28;20599;-66
2023/08/22 13:23:42;;;;;;;6.50;2.50;;;;;;;;;;4981024;28;20238;-66
2023/08/22 13:26:09;;;;;;;3.50;3.28;;;;;;;;;;4981123;28;20337;-68
2023/08/22 13:28:36;;;;;;;4.95;2.65;;;;;;;;;;4977235;28;20223;-66
2023/08/22 13:31:03;;;;;;;5.45;3.10;;;;;;;;;;4977467;28;20219;-67
2023/08/22 13:33:30;;;;;;;4.85;3.03;;;;;;;;;;4987585;28;20218;-67
2023/08/22 13:35:58;;;;;;;3.38;2.83;;;;;;;;;;4980818;28;20206;-68
2023/08/22 13:38:25;;;;;;;3.70;2.80;;;;;;;;;;4978296;28;20226;-67
2023/08/22 13:40:51;;;;;;;6.50;3.05;;;;;;;;;;4977295;28;20207;-67
2023/08/22 13:43:18;;;;;;;4.80;2.90;;;;;;;;;;4978256;28;20242;-67
2023/08/22 13:45:44;;;;;;;3.95;2.78;;;;;;;;;;4980552;28;20210;-69
2023/08/22 13:48:11;;;;;;;5.10;2.88;;;;;;;;;;4980881;28;20234;-67
2023/08/22 13:50:38;;;;;;;6.47;2.90;;;;;;;;;;4983007;28;20198;-68
2023/08/22 13:56:09;;;;;;;4.60;3.00;;;;;;;;;;4983358;28;20415;-76
2023/08/22 13:58:35;;;;;;;3.05;2.75;;;;;;;;;;4989599;28;20611;-76
2023/08/22 14:01:02;;;;;;;3.13;2.92;;;;;;;;;;4989246;28;20210;-75
2023/08/22 14:03:28;;;;;;;3.70;2.63;;;;;;;;;;4990249;28;20571;-76
2023/08/22 14:05:54;;;;;;;3.15;2.60;;;;;;;;;;4989764;28;20218;-75
2023/08/22 14:08:21;;;;;;;6.60;3.00;;;;;;;;;;4990980;28;20588;-76
2023/08/22 14:10:47;;;;;;;6.70;2.97;;;;;;;;;;4994487;28;20214;-76
2023/08/22 14:13:14;;;;;;;4.50;2.67;;;;;;;;;;4994913;28;20704;-76
2023/08/22 14:15:41;;;;;;;4.03;2.80;;;;;;;;;;4994702;28;20246;-76
2023/08/22 14:18:08;;;;;;;3.47;2.78;;;;;;;;;;4994506;28;20225;-77
2023/08/22 14:20:35;;;;;;;3.30;2.83;;;;;;;;;;4994694;28;20203;-76
2023/08/22 14:23:02;;;;;;;3.92;2.95;;;;;;;;;;4994819;28;20206;-76
2023/08/22 14:25:28;;;;;;;5.70;3.42;;;;;;;;;;4993802;28;20206;-77
2023/08/22 14:27:55;;;;;;;4.32;2.97;;;;;;;;;;4993473;28;20230;-76
2023/08/22 14:30:23;;;;;;;3.17;2.85;;;;;;;;;;4993604;28;20207;-75
2023/08/22 14:32:49;;;;;;;4.65;2.80;;;;;;;;;;4993364;28;20219;-75
2023/08/22 14:35:15;;;;;;;4.07;2.78;;;;;;;;;;4993955;28;20209;-76
2023/08/22 14:37:41;;;;;;;3.50;2.78;;;;;;;;;;4993399;28;20577;-76
2023/08/22 14:40:08;;;;;;;3.05;2.78;;;;;;;;;;4993940;28;20202;-76
2023/08/22 14:42:34;;;;;;;4.85;2.60;;;;;;;;;;4993760;28;20705;-77